Time;durP1;ratioP1;P1;durP2;ratioP2;P2;SDS_P1;SDS_P2;PMS_P1;PMS_P2;Temp;Humidity;BMP_temperature;BMP_pressure;BME280_temperature;BME280_humidity;BME280_pressure;Samples;Min_cycle;Max_cycle;Signal;HPM_P1;HPM_P2
2022/06/21 00:01:02;;;;;;;0.00;0.00;;;19.80;99.90;;;;;;4977032;28;20098;-71
2022/06/21 00:03:29;;;;;;;0.00;0.00;;;20.00;99.90;;;;;;4972202;28;20026;-71
2022/06/21 00:05:56;;;;;;;0.00;0.00;;;20.10;99.90;;;;;;4975149;28;20070;-71
2022/06/21 00:08:27;;;;;;;0.22;0.00;;;20.10;99.90;;;;;;4971823;28;20034;-72
2022/06/21 00:10:54;;;;;;;0.00;0.00;;;20.20;99.90;;;;;;4969917;28;20366;-71
2022/06/21 00:13:38;;;;;;;0.00;0.00;;;19.80;99.90;;;;;;4975725;28;20029;-71
2022/06/21 00:16:10;;;;;;;0.00;0.00;;;20.10;99.90;;;;;;4979396;28;20026;-73
2022/06/21 00:18:38;;;;;;;0.00;0.00;;;20.20;99.90;;;;;;4969787;28;20493;-71
2022/06/21 00:21:12;;;;;;;0.10;0.10;;;20.30;99.90;;;;;;4969874;28;20474;-71
2022/06/21 00:23:38;;;;;;;0.00;0.00;;;20.20;99.90;;;;;;4972955;28;20404;-71
2022/06/21 00:26:04;;;;;;;0.15;0.15;;;19.90;99.90;;;;;;4977135;28;20106;-71
2022/06/21 00:28:30;;;;;;;0.00;0.00;;;19.80;99.90;;;;;;4970162;28;20584;-72
2022/06/21 00:30:57;;;;;;;11.45;10.23;;;20.10;99.90;;;;;;4969076;28;20117;-72
2022/06/21 00:33:24;;;;;;;0.00;0.00;;;20.30;99.90;;;;;;4973608;28;20114;-72
2022/06/21 00:35:53;;;;;;;0.00;0.00;;;20.40;99.90;;;;;;4970285;28;20073;-72
2022/06/21 00:38:33;;;;;;;0.00;0.00;;;20.20;99.90;;;;;;4972351;28;20026;-72
2022/06/21 00:41:04;;;;;;;0.00;0.00;;;20.10;99.90;;;;;;4973339;28;20022;-72
2022/06/21 00:43:40;;;;;;;0.00;0.00;;;20.00;99.90;;;;;;4971832;28;20062;-72
2022/06/21 00:46:30;;;;;;;0.00;0.00;;;19.80;99.90;;;;;;4969963;28;20023;-71
2022/06/21 00:48:58;;;;;;;0.00;0.00;;;20.10;99.90;;;;;;4974128;28;20911;-71
2022/06/21 00:51:40;;;;;;;0.00;0.00;;;20.40;99.90;;;;;;4974022;28;20031;-72
2022/06/21 00:54:19;;;;;;;0.00;0.00;;;20.50;99.90;;;;;;4967656;28;20082;-72
2022/06/21 00:57:01;;;;;;;0.00;0.00;;;20.60;99.90;;;;;;4965957;28;20048;-72
2022/06/21 00:59:31;;;;;;;0.00;0.00;;;20.70;99.90;;;;;;4965961;28;20035;-72
2022/06/21 01:02:18;;;;;;;0.00;0.00;;;20.80;99.90;;;;;;4981894;28;20018;-72
2022/06/21 01:04:49;;;;;;;0.00;0.00;;;20.70;99.90;;;;;;4969058;28;20045;-72
2022/06/21 01:07:16;;;;;;;0.00;0.00;;;20.70;99.90;;;;;;4975800;28;20650;-72
2022/06/21 01:10:07;;;;;;;0.00;0.00;;;20.80;99.90;;;;;;4968499;28;20062;-73
2022/06/21 01:13:08;;;;;;;0.00;0.00;;;20.70;99.90;;;;;;4963815;28;20074;-72
2022/06/21 01:15:39;;;;;;;0.00;0.00;;;20.90;99.90;;;;;;4970403;28;20042;-71
2022/06/21 01:18:08;;;;;;;0.00;0.00;;;20.90;99.90;;;;;;4976268;28;20085;-71
2022/06/21 01:20:39;;;;;;;0.00;0.00;;;20.60;99.90;;;;;;4981037;28;20027;-72
2022/06/21 01:23:18;;;;;;;0.00;0.00;;;20.40;99.90;;;;;;4975708;28;20928;-72
2022/06/21 01:26:13;;;;;;;0.00;0.00;;;20.60;99.90;;;;;;4985418;28;20022;-73
2022/06/21 01:28:40;;;;;;;0.00;0.00;;;20.60;99.90;;;;;;4968098;28;20285;-72
2022/06/21 01:31:07;;;;;;;0.00;0.00;;;20.40;99.90;;;;;;4987181;28;20129;-73
2022/06/21 01:33:37;;;;;;;0.00;0.00;;;20.70;99.90;;;;;;4976032;28;20065;-73
2022/06/21 01:36:13;;;;;;;0.00;0.00;;;21.10;99.90;;;;;;4983276;28;20026;-72
2022/06/21 01:38:47;;;;;;;0.00;0.00;;;21.20;99.90;;;;;;4982116;28;20045;-72
2022/06/21 01:41:21;;;;;;;0.00;0.00;;;21.30;99.90;;;;;;4973163;28;20472;-72
2022/06/21 01:43:50;;;;;;;0.00;0.00;;;21.40;99.90;;;;;;4977241;28;20023;-72
2022/06/21 01:46:19;;;;;;;0.00;0.00;;;21.50;99.90;;;;;;4975350;28;20019;-72
2022/06/21 01:48:51;;;;;;;0.00;0.00;;;21.60;99.90;;;;;;4972838;28;20381;-72
2022/06/21 01:51:33;;;;;;;0.00;0.00;;;21.60;99.90;;;;;;4975837;28;20031;-72
2022/06/21 01:54:01;;;;;;;0.00;0.00;;;21.40;99.90;;;;;;4964710;28;20347;-72
2022/06/21 01:56:32;;;;;;;0.00;0.00;;;21.40;99.90;;;;;;4967485;28;20050;-72
2022/06/21 01:59:24;;;;;;;1.48;1.23;;;21.00;99.90;;;;;;4972616;28;20023;-72
2022/06/21 02:02:06;;;;;;;0.00;0.00;;;20.70;99.90;;;;;;4969929;28;20070;-72
2022/06/21 02:04:57;;;;;;;0.00;0.00;;;20.80;99.90;;;;;;4973640;28;20474;-72
2022/06/21 02:07:28;;;;;;;0.00;0.00;;;21.20;99.90;;;;;;4962094;28;20047;-71
2022/06/21 02:10:06;;;;;;;0.00;0.00;;;20.90;99.90;;;;;;4970359;28;20030;-72
2022/06/21 02:12:34;;;;;;;0.00;0.00;;;21.10;99.90;;;;;;4967910;28;20106;-73
2022/06/21 02:15:05;;;;;;;0.00;0.00;;;21.00;99.90;;;;;;4979113;28;20082;-73
2022/06/21 02:17:39;;;;;;;0.00;0.00;;;21.00;99.90;;;;;;4972718;28;20378;-73
2022/06/21 02:20:23;;;;;;;0.00;0.00;;;21.10;99.90;;;;;;4967100;28;20062;-72
2022/06/21 02:22:50;;;;;;;0.13;0.13;;;21.20;99.90;;;;;;4971416;28;20042;-72
2022/06/21 02:25:19;;;;;;;0.10;0.10;;;21.50;99.90;;;;;;4972492;28;20359;-73
2022/06/21 02:27:46;;;;;;;0.00;0.00;;;21.20;99.90;;;;;;4972742;28;20038;-73
2022/06/21 02:30:19;;;;;;;0.00;0.00;;;21.60;99.90;;;;;;4974102;28;20045;-72
2022/06/21 02:32:46;;;;;;;0.10;0.10;;;21.20;99.90;;;;;;4971278;28;20145;-72
2022/06/21 02:35:46;;;;;;;0.05;0.05;;;20.90;99.90;;;;;;4968017;28;20034;-75
2022/06/21 02:38:23;;;;;;;0.00;0.00;;;21.60;99.90;;;;;;4950344;28;20392;-72
2022/06/21 02:41:18;;;;;;;2.28;0.35;;;22.10;99.90;;;;;;4973666;28;20023;-73
2022/06/21 02:43:49;;;;;;;0.00;0.00;;;22.10;99.90;;;;;;4949979;28;20057;-73
2022/06/21 02:46:26;;;;;;;4.28;4.07;;;22.10;99.90;;;;;;4953324;28;20050;-73
2022/06/21 02:49:01;;;;;;;3.95;3.65;;;22.20;99.90;;;;;;4960644;28;20110;-73
2022/06/21 02:51:36;;;;;;;6.43;6.03;;;21.50;99.90;;;;;;4970174;28;20031;-73
2022/06/21 02:54:13;;;;;;;2.85;2.60;;;21.30;99.90;;;;;;4972230;28;20129;-72
2022/06/21 02:57:07;;;;;;;0.00;0.00;;;20.80;99.90;;;;;;4974046;28;20047;-73
2022/06/21 02:59:38;;;;;;;0.00;0.00;;;21.30;99.90;;;;;;4965735;28;20022;-75
2022/06/21 03:02:19;;;;;;;0.00;0.00;;;21.50;99.90;;;;;;4964852;28;20446;-74
2022/06/21 03:04:51;;;;;;;0.00;0.00;;;21.40;99.90;;;;;;4965713;28;20030;-72
2022/06/21 03:07:22;;;;;;;0.00;0.00;;;21.10;99.90;;;;;;4966307;28;20054;-73
2022/06/21 03:09:49;;;;;;;0.88;0.82;;;21.00;99.90;;;;;;4964387;28;20034;-72
2022/06/21 03:12:24;;;;;;;0.00;0.00;;;21.40;99.90;;;;;;4968868;28;21723;-71
2022/06/21 03:14:53;;;;;;;0.22;0.22;;;21.70;99.90;;;;;;4964409;28;20043;-73
2022/06/21 03:17:29;;;;;;;0.00;0.00;;;22.10;99.90;;;;;;4966296;28;20356;-73
2022/06/21 03:19:55;;;;;;;0.00;0.00;;;21.80;99.90;;;;;;4959498;28;20026;-73
2022/06/21 03:22:29;;;;;;;0.00;0.00;;;21.70;99.90;;;;;;4959187;28;20038;-74
2022/06/21 03:24:59;;;;;;;0.00;0.00;;;21.60;99.90;;;;;;4961576;28;20031;-73
2022/06/21 03:27:28;;;;;;;0.00;0.00;;;22.00;99.90;;;;;;4958051;28;20041;-73
2022/06/21 03:29:55;;;;;;;0.00;0.00;;;22.00;99.90;;;;;;4964537;28;20034;-73
2022/06/21 03:32:22;;;;;;;0.00;0.00;;;21.70;99.90;;;;;;4963671;28;20461;-72
2022/06/21 03:34:50;;;;;;;2.05;0.47;;;22.10;99.90;;;;;;4959959;28;20038;-72
2022/06/21 03:37:18;;;;;;;0.00;0.00;;;23.00;99.90;;;;;;4963849;28;20106;-71
2022/06/21 03:42:34;;;;;;;0.00;0.00;;;23.60;99.90;;;;;;4966855;28;20046;-73
2022/06/21 03:45:03;;;;;;;1.27;1.17;;;23.40;99.90;;;;;;4967387;28;20041;-72
2022/06/21 03:47:37;;;;;;;10.85;1.85;;;24.10;99.90;;;;;;4966447;28;20132;-73
2022/06/21 03:50:16;;;;;;;0.08;0.08;;;24.30;99.90;;;;;;4945997;28;20180;-73
2022/06/21 03:52:42;;;;;;;0.00;0.00;;;24.50;99.90;;;;;;4965979;28;20097;-74
2022/06/21 03:55:14;;;;;;;0.00;0.00;;;25.50;99.90;;;;;;4959048;28;20418;-72
2022/06/21 03:57:46;;;;;;;0.00;0.00;;;26.10;96.60;;;;;;4957621;28;20557;-73
2022/06/21 04:00:14;;;;;;;0.10;0.10;;;26.10;93.00;;;;;;4959353;28;20031;-73
2022/06/21 04:02:49;;;;;;;2.35;2.03;;;26.80;86.60;;;;;;4960161;28;20037;-72
2022/06/21 04:05:35;;;;;;;0.00;0.00;;;26.90;81.20;;;;;;4964550;28;20019;-73
2022/06/21 04:08:28;;;;;;;5.40;5.10;;;24.40;92.20;;;;;;4968200;28;20121;-73
2022/06/21 04:11:28;;;;;;;0.00;0.00;;;24.40;99.90;;;;;;4967908;28;20035;-72
2022/06/21 04:13:57;;;;;;;3.72;3.40;;;24.70;99.90;;;;;;4967708;28;20051;-74
2022/06/21 04:16:38;;;;;;;0.15;0.15;;;24.60;99.20;;;;;;4966591;28;20023;-73
2022/06/21 04:19:19;;;;;;;3.17;1.17;;;24.50;99.90;;;;;;4966146;28;20754;-72
2022/06/21 04:21:50;;;;;;;3.33;0.80;;;24.30;99.90;;;;;;4966577;28;20031;-74
2022/06/21 04:24:22;;;;;;;0.00;0.00;;;23.70;99.90;;;;;;4966967;28;20046;-74
2022/06/21 04:26:56;;;;;;;0.00;0.00;;;23.80;99.90;;;;;;4967679;28;20462;-73
2022/06/21 04:29:27;;;;;;;1.67;1.55;;;24.00;99.90;;;;;;4969626;28;20039;-72
2022/06/21 04:32:18;;;;;;;0.80;0.73;;;24.40;99.90;;;;;;4960485;28;20756;-73
2022/06/21 04:34:55;;;;;;;0.00;0.00;;;24.20;99.90;;;;;;4968961;28;20039;-73
2022/06/21 04:37:41;;;;;;;0.10;0.10;;;24.00;99.90;;;;;;4968206;28;20034;-72
2022/06/21 04:40:22;;;;;;;0.00;0.00;;;23.80;99.90;;;;;;4972701;28;20022;-72
2022/06/21 04:43:11;;;;;;;0.22;0.22;;;23.50;99.90;;;;;;4967401;28;20075;-72
2022/06/21 04:45:52;;;;;;;0.10;0.05;;;23.20;99.90;;;;;;4970395;28;20033;-72
2022/06/21 04:48:29;;;;;;;0.00;0.00;;;23.00;99.90;;;;;;4967343;28;20041;-73
2022/06/21 04:51:11;;;;;;;0.00;0.00;;;23.00;99.90;;;;;;4962641;28;20027;-73
2022/06/21 04:53:49;;;;;;;0.20;0.20;;;23.10;99.90;;;;;;4967408;28;20030;-73
2022/06/21 04:57:09;;;;;;;0.10;0.00;;;23.90;99.90;;;;;;4969769;28;20047;-73
2022/06/21 04:59:41;;;;;;;0.20;0.20;;;23.80;99.90;;;;;;4908242;29;20179;-73
2022/06/21 05:02:18;;;;;;;0.20;0.20;;;23.80;99.90;;;;;;4958323;28;20050;-73
2022/06/21 05:04:47;;;;;;;0.20;0.20;;;23.50;99.90;;;;;;4950314;28;20031;-73
2022/06/21 05:07:20;;;;;;;0.15;0.15;;;23.60;99.90;;;;;;4969696;28;20042;-73
2022/06/21 05:09:48;;;;;;;0.88;0.47;;;22.90;99.90;;;;;;4971975;28;20058;-73
2022/06/21 05:12:20;;;;;;;0.05;0.05;;;23.20;99.90;;;;;;4972931;28;20122;-72
2022/06/21 05:14:52;;;;;;;1.05;0.95;;;23.50;99.90;;;;;;4971421;28;20030;-72
2022/06/21 05:17:20;;;;;;;0.38;0.35;;;24.20;99.90;;;;;;4977542;28;20548;-73
2022/06/21 05:19:51;;;;;;;0.32;0.30;;;24.30;99.90;;;;;;4974338;28;20045;-73
2022/06/21 05:22:27;;;;;;;0.00;0.00;;;24.40;99.90;;;;;;4952373;28;20393;-73
2022/06/21 05:24:56;;;;;;;0.00;0.00;;;23.70;99.90;;;;;;4971042;28;20039;-73
2022/06/21 05:27:47;;;;;;;0.10;0.00;;;24.00;99.90;;;;;;4967393;28;20481;-72
2022/06/21 05:30:29;;;;;;;3.92;0.80;;;24.50;92.70;;;;;;4967688;28;20031;-73
2022/06/21 05:33:00;;;;;;;0.20;0.20;;;25.10;86.30;;;;;;4968782;28;20038;-73
2022/06/21 05:35:32;;;;;;;0.00;0.00;;;25.30;85.50;;;;;;4970550;28;20039;-73
2022/06/21 05:38:00;;;;;;;1.65;0.30;;;25.80;86.80;;;;;;4968451;28;20027;-73
2022/06/21 05:40:54;;;;;;;0.00;0.00;;;25.40;85.20;;;;;;4966913;28;20145;-72
2022/06/21 05:43:32;;;;;;;0.13;0.13;;;25.00;82.50;;;;;;4967891;28;20038;-73
2022/06/21 05:46:02;;;;;;;0.00;0.00;;;25.20;82.50;;;;;;4964729;28;20037;-73
2022/06/21 05:48:35;;;;;;;0.00;0.00;;;25.10;86.90;;;;;;4962983;28;20030;-74
2022/06/21 05:51:06;;;;;;;0.00;0.00;;;26.00;79.80;;;;;;4964001;28;20049;-73
2022/06/21 05:53:37;;;;;;;0.00;0.00;;;25.20;77.40;;;;;;4965833;28;20038;-75
2022/06/21 05:56:11;;;;;;;0.90;0.90;;;25.10;80.10;;;;;;4965780;28;20485;-75
2022/06/21 05:58:43;;;;;;;0.15;0.08;;;25.80;76.20;;;;;;4968862;28;20465;-72
2022/06/21 06:01:29;;;;;;;0.00;0.00;;;25.10;81.50;;;;;;4966558;28;20560;-74
2022/06/21 06:04:05;;;;;;;0.00;0.00;;;25.60;80.30;;;;;;4962658;28;20426;-75
2022/06/21 06:06:35;;;;;;;0.00;0.00;;;26.10;74.30;;;;;;4956668;28;20034;-76
2022/06/21 06:09:08;;;;;;;0.00;0.00;;;25.60;77.20;;;;;;4965423;28;20497;-74
2022/06/21 06:11:57;;;;;;;0.00;0.00;;;25.80;76.50;;;;;;4966433;28;20037;-74
2022/06/21 06:14:28;;;;;;;21.17;18.90;;;25.80;75.30;;;;;;4961879;28;20043;-74
2022/06/21 06:16:59;;;;;;;0.20;0.20;;;26.00;76.20;;;;;;4964983;28;20051;-72
2022/06/21 06:19:43;;;;;;;1.65;0.52;;;25.00;80.80;;;;;;4961718;28;21021;-74
2022/06/21 06:22:38;;;;;;;0.20;0.20;;;24.60;80.70;;;;;;4959499;28;21571;-73
2022/06/21 06:25:22;;;;;;;0.10;0.00;;;25.10;81.20;;;;;;4969217;28;20117;-73
2022/06/21 06:28:16;;;;;;;0.43;0.30;;;25.00;78.10;;;;;;4958584;28;20761;-74
2022/06/21 06:31:03;;;;;;;0.00;0.00;;;25.40;77.00;;;;;;4964286;28;20050;-74
2022/06/21 06:33:32;;;;;;;0.00;0.00;;;26.20;73.50;;;;;;4965735;28;20130;-74
2022/06/21 06:36:04;;;;;;;0.00;0.00;;;26.80;70.00;;;;;;4965202;28;20055;-74
2022/06/21 06:38:30;;;;;;;0.00;0.00;;;25.40;74.70;;;;;;4964125;28;20025;-75
2022/06/21 06:41:08;;;;;;;0.00;0.00;;;25.20;74.70;;;;;;4965696;28;20050;-73
2022/06/21 06:44:01;;;;;;;0.00;0.00;;;25.30;77.00;;;;;;4964771;28;20045;-75
2022/06/21 06:46:35;;;;;;;0.00;0.00;;;25.40;77.90;;;;;;4960618;28;20034;-75
2022/06/21 06:49:46;;;;;;;0.00;0.00;;;25.90;75.50;;;;;;4964729;28;20504;-75
2022/06/21 06:52:20;;;;;;;0.00;0.00;;;26.50;71.60;;;;;;4964925;28;20042;-74
2022/06/21 06:54:55;;;;;;;0.00;0.00;;;26.20;72.90;;;;;;4965019;28;20073;-73
2022/06/21 06:57:30;;;;;;;0.10;0.10;;;26.90;70.10;;;;;;4969995;28;20502;-74
2022/06/21 06:59:57;;;;;;;0.00;0.00;;;27.30;68.50;;;;;;4962529;28;20145;-74
2022/06/21 07:02:29;;;;;;;0.00;0.00;;;27.80;65.70;;;;;;4967772;28;20081;-74
2022/06/21 07:05:14;;;;;;;0.10;0.10;;;27.90;64.30;;;;;;4970214;28;20026;-74
2022/06/21 07:07:53;;;;;;;0.00;0.00;;;28.10;61.80;;;;;;4963010;28;20069;-75
2022/06/21 07:10:23;;;;;;;2.55;0.65;;;28.10;61.30;;;;;;4959645;28;20031;-74
2022/06/21 07:12:51;;;;;;;0.00;0.00;;;27.30;61.70;;;;;;4962928;28;20066;-73
2022/06/21 07:15:21;;;;;;;0.00;0.00;;;27.60;61.30;;;;;;4959936;28;20412;-73
2022/06/21 07:17:55;;;;;;;0.10;0.10;;;26.70;61.80;;;;;;4961433;28;20038;-73
2022/06/21 07:20:25;;;;;;;4.38;1.45;;;26.10;65.70;;;;;;4960788;28;20066;-73
2022/06/21 07:22:58;;;;;;;0.00;0.00;;;26.90;64.50;;;;;;4963631;28;20019;-73
2022/06/21 07:25:51;;;;;;;0.00;0.00;;;27.00;63.90;;;;;;4964905;28;20053;-73
2022/06/21 07:28:31;;;;;;;0.00;0.00;;;27.60;62.30;;;;;;4968277;28;20116;-73
2022/06/21 07:31:01;;;;;;;0.00;0.00;;;27.90;61.00;;;;;;4970407;28;20034;-73
2022/06/21 07:33:39;;;;;;;0.22;0.10;;;27.80;61.50;;;;;;4962368;28;20045;-73
2022/06/21 07:36:18;;;;;;;0.00;0.00;;;26.90;60.20;;;;;;4963834;28;20141;-73
2022/06/21 07:39:04;;;;;;;0.00;0.00;;;26.40;65.00;;;;;;4968552;28;20026;-73
2022/06/21 07:41:40;;;;;;;0.35;0.32;;;27.30;62.40;;;;;;4967651;28;20039;-73
2022/06/21 07:44:31;;;;;;;1.85;1.77;;;26.90;63.20;;;;;;4970376;28;20121;-74
2022/06/21 07:47:03;;;;;;;1.02;0.63;;;27.30;61.60;;;;;;4965307;28;20049;-74
2022/06/21 07:49:43;;;;;;;0.00;0.00;;;27.70;61.30;;;;;;4964630;28;20031;-74
2022/06/21 07:52:21;;;;;;;0.20;0.10;;;27.80;58.20;;;;;;4969523;28;20122;-73
2022/06/21 07:54:55;;;;;;;0.00;0.00;;;27.70;57.90;;;;;;4964050;28;20524;-75
2022/06/21 07:57:27;;;;;;;0.00;0.00;;;28.20;58.10;;;;;;4959875;28;20082;-73
2022/06/21 08:00:01;;;;;;;0.22;0.00;;;27.30;60.10;;;;;;4965526;28;20030;-73
2022/06/21 08:08:17;;;;;;;0.00;0.00;;;28.10;57.80;;;;;;4962112;28;20041;-73
2022/06/21 08:11:04;;;;;;;1.15;0.80;;;28.70;56.30;;;;;;4960765;28;20064;-74
2022/06/21 08:13:30;;;;;;;0.10;0.10;;;29.10;55.90;;;;;;4967139;28;20073;-73
2022/06/21 08:16:16;;;;;;;0.20;0.10;;;29.00;54.00;;;;;;4964839;28;20026;-73
2022/06/21 08:18:51;;;;;;;0.00;0.00;;;28.60;54.10;;;;;;4965963;28;20035;-73
2022/06/21 08:21:34;;;;;;;0.28;0.20;;;28.90;55.40;;;;;;4966588;28;20026;-73
2022/06/21 08:24:15;;;;;;;0.00;0.00;;;27.70;55.90;;;;;;4967304;28;20045;-73
2022/06/21 08:27:01;;;;;;;0.00;0.00;;;27.30;57.10;;;;;;4967155;28;20041;-74
2022/06/21 08:29:51;;;;;;;2.13;1.85;;;27.00;58.90;;;;;;4962364;28;20035;-74
2022/06/21 08:32:32;;;;;;;1.13;0.63;;;27.30;57.50;;;;;;4959178;28;20452;-74
2022/06/21 08:35:06;;;;;;;0.00;0.00;;;27.40;57.80;;;;;;4953354;28;20094;-74
2022/06/21 08:37:56;;;;;;;0.00;0.00;;;27.00;61.00;;;;;;4959534;28;20118;-73
2022/06/21 08:40:25;;;;;;;0.30;0.30;;;26.80;60.00;;;;;;4964142;28;20027;-73
2022/06/21 08:42:57;;;;;;;3.10;3.00;;;26.90;60.50;;;;;;4965281;28;20520;-74
2022/06/21 08:45:57;;;;;;;0.08;0.08;;;26.90;61.00;;;;;;4960772;28;20047;-74
2022/06/21 08:49:01;;;;;;;1.85;1.38;;;26.70;61.90;;;;;;4964642;28;20186;-74
2022/06/21 08:52:01;;;;;;;0.00;0.00;;;26.70;63.80;;;;;;4965022;28;20037;-75
2022/06/21 08:54:56;;;;;;;0.22;0.22;;;26.50;64.80;;;;;;4964021;28;20035;-75
2022/06/21 08:57:44;;;;;;;0.00;0.00;;;26.60;64.90;;;;;;4970591;28;20066;-73
2022/06/21 09:00:33;;;;;;;0.00;0.00;;;26.90;64.10;;;;;;4967038;28;20026;-74
2022/06/21 09:03:20;;;;;;;0.00;0.00;;;26.60;66.10;;;;;;4964860;28;20039;-75
2022/06/21 09:06:07;;;;;;;0.10;0.10;;;26.80;64.00;;;;;;4961583;28;20035;-74
2022/06/21 09:09:00;;;;;;;0.00;0.00;;;27.10;63.50;;;;;;4965010;28;20046;-74
2022/06/21 09:11:44;;;;;;;2.17;0.63;;;27.30;62.40;;;;;;4966370;28;20043;-74
2022/06/21 09:14:29;;;;;;;0.00;0.00;;;27.50;60.40;;;;;;4968899;28;20535;-75
2022/06/21 09:17:24;;;;;;;0.00;0.00;;;27.90;60.60;;;;;;4965996;28;20049;-72
2022/06/21 09:20:11;;;;;;;0.00;0.00;;;27.80;60.00;;;;;;4964104;28;20049;-74
2022/06/21 09:22:48;;;;;;;1.77;1.77;;;27.80;60.20;;;;;;4964910;28;20394;-74
2022/06/21 09:25:26;;;;;;;0.00;0.00;;;27.60;60.00;;;;;;4945809;28;20126;-73
2022/06/21 09:28:17;;;;;;;3.20;3.10;;;28.00;58.70;;;;;;4959912;28;20484;-73
2022/06/21 09:30:50;;;;;;;2.05;1.85;;;28.20;58.20;;;;;;4958765;28;20537;-74
2022/06/21 09:33:37;;;;;;;0.00;0.00;;;27.80;58.20;;;;;;4960090;28;20478;-74
2022/06/21 09:36:21;;;;;;;0.00;0.00;;;27.60;59.20;;;;;;4962013;28;20041;-76
2022/06/21 09:39:13;;;;;;;0.00;0.00;;;27.40;58.80;;;;;;4963542;28;20030;-74
2022/06/21 09:41:55;;;;;;;0.00;0.00;;;27.10;60.00;;;;;;4960858;28;20126;-73
2022/06/21 09:44:31;;;;;;;0.00;0.00;;;27.10;60.00;;;;;;4969038;28;20046;-73
2022/06/21 09:47:32;;;;;;;0.00;0.00;;;26.70;61.30;;;;;;4968207;28;20034;-74
2022/06/21 09:50:12;;;;;;;0.00;0.00;;;26.70;61.70;;;;;;4942064;28;20481;-75
2022/06/21 09:52:56;;;;;;;0.00;0.00;;;26.90;62.00;;;;;;4969378;28;20131;-74
2022/06/21 09:55:47;;;;;;;0.00;0.00;;;27.00;61.00;;;;;;4968846;28;20532;-74
2022/06/21 09:58:31;;;;;;;0.00;0.00;;;26.40;64.60;;;;;;4964936;28;20035;-75
2022/06/21 10:01:17;;;;;;;0.00;0.00;;;26.80;61.50;;;;;;4967196;28;20022;-74
2022/06/21 10:03:55;;;;;;;0.00;0.00;;;26.90;64.00;;;;;;4968553;28;20031;-74
2022/06/21 10:06:55;;;;;;;0.20;0.20;;;27.00;62.40;;;;;;4966818;28;20030;-74
2022/06/21 10:09:51;;;;;;;0.15;0.10;;;27.40;60.30;;;;;;4967289;28;20026;-75
2022/06/21 10:12:16;;;;;;;4.03;1.08;;;26.90;60.50;;;;;;4966632;28;20023;-74
2022/06/21 10:15:09;;;;;;;0.05;0.05;;;26.60;60.90;;;;;;4967446;28;20355;-73
2022/06/21 10:17:47;;;;;;;0.00;0.00;;;26.80;61.70;;;;;;4970074;28;20369;-73
2022/06/21 10:20:48;;;;;;;0.00;0.00;;;27.10;59.50;;;;;;4969695;28;20111;-74
2022/06/21 10:23:23;;;;;;;0.55;0.55;;;27.20;59.90;;;;;;4966221;28;20061;-74
2022/06/21 10:26:11;;;;;;;0.13;0.13;;;26.90;61.50;;;;;;4964255;28;20097;-75
2022/06/21 10:29:08;;;;;;;0.00;0.00;;;26.60;62.80;;;;;;4968948;28;20466;-75
2022/06/21 10:31:48;;;;;;;0.00;0.00;;;26.60;62.00;;;;;;4967438;28;20037;-74
2022/06/21 10:34:33;;;;;;;0.00;0.00;;;26.70;61.40;;;;;;4969389;28;20034;-73
2022/06/21 10:37:24;;;;;;;0.00;0.00;;;26.80;60.90;;;;;;4968042;28;20244;-72
2022/06/21 10:40:40;;;;;;;0.00;0.00;;;26.80;62.30;;;;;;4951182;28;20400;-73
2022/06/21 10:43:37;;;;;;;0.00;0.00;;;26.00;64.40;;;;;;4917526;28;20046;-72
2022/06/21 10:46:11;;;;;;;0.15;0.15;;;25.80;64.30;;;;;;4969938;28;20550;-74
2022/06/21 10:48:56;;;;;;;0.00;0.00;;;25.70;64.20;;;;;;4970756;28;20034;-73
2022/06/21 10:51:44;;;;;;;0.08;0.08;;;26.00;64.60;;;;;;4968925;28;20037;-74
2022/06/21 10:54:17;;;;;;;0.00;0.00;;;26.40;63.60;;;;;;4970001;28;20381;-73
2022/06/21 10:57:13;;;;;;;0.00;0.00;;;26.00;65.00;;;;;;4972253;28;20046;-74
2022/06/21 11:03:04;;;;;;;0.00;0.00;;;26.00;65.50;;;;;;4973534;28;20122;-73
2022/06/21 11:05:52;;;;;;;0.20;0.10;;;26.00;64.50;;;;;;4968069;28;20023;-73
2022/06/21 11:08:49;;;;;;;0.00;0.00;;;26.20;64.00;;;;;;4969924;28;20113;-74
2022/06/21 11:11:33;;;;;;;0.00;0.00;;;25.90;64.80;;;;;;4967281;28;20018;-73
2022/06/21 11:14:36;;;;;;;0.00;0.00;;;26.20;64.90;;;;;;4967563;28;20031;-74
2022/06/21 11:17:35;;;;;;;0.10;0.00;;;26.40;64.80;;;;;;4971272;28;20031;-74
2022/06/21 11:20:25;;;;;;;0.00;0.00;;;25.70;65.00;;;;;;4970721;28;20469;-75
2022/06/21 11:23:18;;;;;;;0.00;0.00;;;25.90;64.70;;;;;;4970447;28;20027;-73
2022/06/21 11:25:58;;;;;;;0.00;0.00;;;26.30;64.40;;;;;;4969565;28;20026;-74
2022/06/21 11:28:55;;;;;;;0.00;0.00;;;26.40;64.10;;;;;;4967441;28;20105;-74
2022/06/21 11:31:38;;;;;;;0.05;0.05;;;26.60;63.60;;;;;;4969199;28;20080;-74
2022/06/21 11:34:16;;;;;;;0.00;0.00;;;26.60;62.20;;;;;;4969971;28;20031;-74
2022/06/21 11:36:57;;;;;;;0.10;0.10;;;26.50;62.90;;;;;;4968181;28;20434;-73
2022/06/21 11:39:55;;;;;;;0.00;0.00;;;26.40;63.70;;;;;;4970283;28;20022;-74
2022/06/21 11:42:26;;;;;;;0.00;0.00;;;26.40;64.80;;;;;;4973301;28;20543;-74
2022/06/21 11:45:30;;;;;;;0.00;0.00;;;26.50;64.10;;;;;;4971178;28;20501;-74
2022/06/21 11:48:02;;;;;;;0.10;0.10;;;26.60;61.50;;;;;;4966233;28;20039;-72
2022/06/21 11:51:11;;;;;;;0.00;0.00;;;26.60;62.30;;;;;;4969512;28;20027;-72
2022/06/21 11:53:59;;;;;;;0.00;0.00;;;26.30;63.20;;;;;;4970139;28;20030;-72
2022/06/21 11:56:34;;;;;;;0.00;0.00;;;26.40;64.10;;;;;;4971777;28;20054;-74
2022/06/21 11:59:23;;;;;;;0.00;0.00;;;26.70;63.20;;;;;;4968859;28;20022;-73
2022/06/21 12:02:11;;;;;;;0.00;0.00;;;26.30;63.40;;;;;;4967506;28;20035;-73
2022/06/21 12:05:00;;;;;;;0.00;0.00;;;26.50;63.50;;;;;;4963624;28;20018;-72
2022/06/21 12:07:35;;;;;;;0.00;0.00;;;26.10;64.70;;;;;;4969497;28;20041;-74
2022/06/21 12:10:19;;;;;;;0.00;0.00;;;26.10;65.20;;;;;;4970575;28;20035;-74
2022/06/21 12:13:06;;;;;;;0.00;0.00;;;26.30;65.50;;;;;;4969007;28;20552;-73
2022/06/21 12:15:49;;;;;;;0.00;0.00;;;26.40;63.60;;;;;;4969826;28;20038;-73
2022/06/21 12:18:21;;;;;;;0.00;0.00;;;26.40;64.30;;;;;;4965841;28;20081;-74
2022/06/21 12:21:07;;;;;;;0.00;0.00;;;26.50;64.50;;;;;;4969905;28;20034;-73
2022/06/21 12:23:58;;;;;;;0.00;0.00;;;26.60;65.60;;;;;;4969238;28;20507;-73
2022/06/21 12:26:27;;;;;;;0.00;0.00;;;26.70;65.00;;;;;;4969530;28;20053;-72
2022/06/21 12:28:56;;;;;;;0.17;0.17;;;26.80;63.80;;;;;;4970377;28;20027;-73
2022/06/21 12:31:28;;;;;;;0.00;0.00;;;26.80;63.70;;;;;;4967208;28;20026;-73
2022/06/21 12:34:04;;;;;;;4.57;1.67;;;26.10;65.40;;;;;;4976197;28;20038;-73
2022/06/21 12:36:30;;;;;;;0.00;0.00;;;26.30;65.60;;;;;;4968374;28;20023;-73
2022/06/21 12:39:04;;;;;;;0.00;0.00;;;26.60;63.70;;;;;;4963749;28;20328;-73
2022/06/21 12:42:12;;;;;;;0.00;0.00;;;26.70;63.10;;;;;;4964923;28;20042;-73
2022/06/21 12:45:05;;;;;;;0.00;0.00;;;27.00;62.40;;;;;;4961560;28;20102;-74
2022/06/21 12:47:49;;;;;;;0.00;0.00;;;27.00;61.80;;;;;;4969144;28;20581;-73
2022/06/21 12:50:55;;;;;;;0.00;0.00;;;26.80;62.80;;;;;;4972509;28;20074;-73
2022/06/21 12:53:41;;;;;;;0.00;0.00;;;26.40;63.20;;;;;;4969370;28;20070;-72
2022/06/21 12:56:29;;;;;;;0.00;0.00;;;26.20;64.10;;;;;;4969873;28;20105;-73
2022/06/21 12:59:13;;;;;;;0.00;0.00;;;26.40;63.60;;;;;;4971618;28;20030;-73
2022/06/21 13:01:42;;;;;;;0.00;0.00;;;26.60;63.00;;;;;;4962565;28;20530;-73
2022/06/21 13:04:47;;;;;;;0.00;0.00;;;26.60;63.20;;;;;;4970944;28;20070;-73
2022/06/21 13:07:35;;;;;;;0.05;0.05;;;26.40;64.10;;;;;;4971232;28;20023;-74
2022/06/21 13:10:01;;;;;;;0.00;0.00;;;26.20;64.10;;;;;;4971577;28;20031;-72
2022/06/21 13:12:48;;;;;;;0.22;0.22;;;26.40;64.40;;;;;;4977487;28;20039;-74
2022/06/21 13:15:46;;;;;;;0.00;0.00;;;26.50;62.80;;;;;;4978058;28;20034;-74
2022/06/21 13:18:40;;;;;;;0.00;0.00;;;26.60;63.10;;;;;;4882877;29;20436;-73
2022/06/21 13:21:39;;;;;;;0.00;0.00;;;26.60;63.40;;;;;;4982240;28;20026;-74
2022/06/21 13:24:35;;;;;;;0.00;0.00;;;26.60;62.70;;;;;;4976948;28;20045;-75
2022/06/21 13:27:10;;;;;;;0.00;0.00;;;26.70;62.70;;;;;;4980730;28;20026;-73
2022/06/21 13:30:01;;;;;;;0.10;0.10;;;26.40;64.10;;;;;;4978607;28;20539;-73
2022/06/21 13:32:31;;;;;;;0.00;0.00;;;26.40;63.00;;;;;;4974411;28;20489;-72
2022/06/21 13:35:32;;;;;;;0.00;0.00;;;26.50;62.70;;;;;;4977528;28;20034;-72
2022/06/21 13:38:03;;;;;;;0.00;0.00;;;26.60;63.10;;;;;;4976137;28;20153;-74
2022/06/21 13:40:44;;;;;;;0.22;0.22;;;26.60;62.60;;;;;;4984325;28;20027;-74
2022/06/21 13:43:37;;;;;;;0.00;0.00;;;26.60;62.70;;;;;;4977460;28;20470;-73
2022/06/21 13:46:20;;;;;;;0.00;0.00;;;26.60;62.90;;;;;;4973295;28;20371;-74
2022/06/21 13:48:57;;;;;;;0.00;0.00;;;26.40;63.60;;;;;;4989443;28;20030;-74
2022/06/21 13:51:58;;;;;;;0.20;0.20;;;26.40;63.70;;;;;;4975403;28;20023;-74
2022/06/21 13:54:49;;;;;;;0.43;0.43;;;26.40;64.30;;;;;;4973726;28;20031;-74
2022/06/21 13:57:19;;;;;;;0.00;0.00;;;26.40;64.50;;;;;;4974474;28;20043;-74
2022/06/21 13:59:48;;;;;;;0.00;0.00;;;26.30;64.60;;;;;;4979337;28;20106;-74
2022/06/21 14:02:41;;;;;;;3.15;2.28;;;26.30;64.70;;;;;;4977366;28;20101;-74